Terminal Aerodrome Forecast
Issued by NWS Twin Cities, MN

Home | Current Version | Previous Version | Graphics & Text | Print | Product List | Glossary On
Versions: 1 2 3 4 5 6 7 8 9 10 11 12 13 14 15 16 17 18 19
000
FTUS43 KMPX 280500
TAFEAU
TAF
KEAU 280523Z 2806/2906 16003KT P6SM OVC080
     FM280700 14006KT 2SM -SN BR SCT008 OVC015
      TEMPO 2807/2811 1SM -SN BKN008
     FM281100 13007KT 5SM -SN BR SCT006 OVC012
     FM281700 12004KT 6SM BR OVC020 PROB30 2817/2820 4SM -FZDZ BR
     FM290200 11003KT P6SM OVC030 PROB30 2902/2906 5SM -PL BR=

USA.gov is the U.S. government's official web portal to all federal, state and local government web resources and services.